sensor_id;sensor_type;location;lat;lon;timestamp;P1;durP1;ratioP1;P2;durP2;ratioP2
58966;SDS011;44744;51.894;5.080;2023-04-15T00:00:43;8.20;;;3.90;;
58966;SDS011;44744;51.894;5.080;2023-04-15T00:01:43;6.30;;;3.80;;
58966;SDS011;44744;51.894;5.080;2023-04-15T00:02:43;9.30;;;4.30;;
58966;SDS011;44744;51.894;5.080;2023-04-15T00:03:44;7.80;;;4.10;;
58966;SDS011;44744;51.894;5.080;2023-04-15T00:04:45;10.10;;;4.50;;
58966;SDS011;44744;51.894;5.080;2023-04-15T00:05:46;8.70;;;4.10;;
58966;SDS011;44744;51.894;5.080;2023-04-15T00:06:50;5.80;;;4.10;;
58966;SDS011;44744;51.894;5.080;2023-04-15T00:07:51;7.30;;;4.10;;
58966;SDS011;44744;51.894;5.080;2023-04-15T00:08:51;6.60;;;3.80;;
58966;SDS011;44744;51.894;5.080;2023-04-15T00:09:51;8.70;;;4.60;;
58966;SDS011;44744;51.894;5.080;2023-04-15T00:10:51;9.90;;;4.40;;
58966;SDS011;44744;51.894;5.080;2023-04-15T00:11:52;9.80;;;4.30;;
58966;SDS011;44744;51.894;5.080;2023-04-15T00:12:52;7.80;;;4.20;;
58966;SDS011;44744;51.894;5.080;2023-04-15T00:13:52;9.00;;;4.10;;
58966;SDS011;44744;51.894;5.080;2023-04-15T00:14:53;10.10;;;4.60;;
58966;SDS011;44744;51.894;5.080;2023-04-15T00:15:53;8.00;;;3.90;;
58966;SDS011;44744;51.894;5.080;2023-04-15T00:16:53;7.40;;;4.70;;
58966;SDS011;44744;51.894;5.080;2023-04-15T00:17:54;8.30;;;4.60;;
58966;SDS011;44744;51.894;5.080;2023-04-15T00:18:54;12.40;;;4.30;;
58966;SDS011;44744;51.894;5.080;2023-04-15T00:19:54;11.90;;;4.50;;
58966;SDS011;44744;51.894;5.080;2023-04-15T00:20:54;9.20;;;3.60;;
58966;SDS011;44744;51.894;5.080;2023-04-15T00:21:55;8.00;;;4.30;;
58966;SDS011;44744;51.894;5.080;2023-04-15T00:22:55;9.00;;;4.10;;
58966;SDS011;44744;51.894;5.080;2023-04-15T00:23:56;11.00;;;4.20;;
58966;SDS011;44744;51.894;5.080;2023-04-15T00:24:56;11.10;;;4.10;;
58966;SDS011;44744;51.894;5.080;2023-04-15T00:25:57;6.30;;;4.20;;
58966;SDS011;44744;51.894;5.080;2023-04-15T00:26:57;8.30;;;4.10;;
58966;SDS011;44744;51.894;5.080;2023-04-15T00:27:57;7.40;;;4.10;;
58966;SDS011;44744;51.894;5.080;2023-04-15T00:28:57;9.40;;;3.90;;
58966;SDS011;44744;51.894;5.080;2023-04-15T00:29:58;8.40;;;4.20;;
58966;SDS011;44744;51.894;5.080;2023-04-15T00:30:58;7.40;;;4.20;;
58966;SDS011;44744;51.894;5.080;2023-04-15T00:31:58;8.70;;;4.10;;
58966;SDS011;44744;51.894;5.080;2023-04-15T00:32:59;8.50;;;4.10;;
58966;SDS011;44744;51.894;5.080;2023-04-15T00:34:00;7.40;;;4.30;;
58966;SDS011;44744;51.894;5.080;2023-04-15T00:35:00;7.60;;;4.10;;
58966;SDS011;44744;51.894;5.080;2023-04-15T00:36:00;7.60;;;4.20;;
58966;SDS011;44744;51.894;5.080;2023-04-15T00:37:01;7.10;;;4.10;;
58966;SDS011;44744;51.894;5.080;2023-04-15T00:38:02;6.20;;;3.80;;
58966;SDS011;44744;51.894;5.080;2023-04-15T00:39:03;8.50;;;4.50;;
58966;SDS011;44744;51.894;5.080;2023-04-15T00:40:03;6.20;;;4.30;;
58966;SDS011;44744;51.894;5.080;2023-04-15T00:41:04;7.50;;;3.90;;
58966;SDS011;44744;51.894;5.080;2023-04-15T00:42:04;7.90;;;4.10;;
58966;SDS011;44744;51.894;5.080;2023-04-15T00:43:04;6.10;;;4.00;;
58966;SDS011;44744;51.894;5.080;2023-04-15T00:44:05;8.70;;;4.40;;
58966;SDS011;44744;51.894;5.080;2023-04-15T00:45:06;8.00;;;4.30;;
58966;SDS011;44744;51.894;5.080;2023-04-15T00:46:06;7.20;;;4.30;;
58966;SDS011;44744;51.894;5.080;2023-04-15T00:47:09;7.80;;;4.10;;
58966;SDS011;44744;51.894;5.080;2023-04-15T00:48:10;6.50;;;4.00;;
58966;SDS011;44744;51.894;5.080;2023-04-15T00:49:11;7.60;;;4.40;;
58966;SDS011;44744;51.894;5.080;2023-04-15T00:50:11;7.30;;;4.40;;
58966;SDS011;44744;51.894;5.080;2023-04-15T00:51:12;6.70;;;4.50;;
58966;SDS011;44744;51.894;5.080;2023-04-15T00:52:13;7.30;;;4.60;;
58966;SDS011;44744;51.894;5.080;2023-04-15T00:53:13;6.20;;;4.00;;
58966;SDS011;44744;51.894;5.080;2023-04-15T00:54:13;10.20;;;4.20;;
58966;SDS011;44744;51.894;5.080;2023-04-15T00:55:14;11.00;;;5.20;;
58966;SDS011;44744;51.894;5.080;2023-04-15T00:56:15;9.70;;;5.10;;
58966;SDS011;44744;51.894;5.080;2023-04-15T00:57:15;9.30;;;4.90;;
58966;SDS011;44744;51.894;5.080;2023-04-15T00:58:16;7.40;;;5.10;;
58966;SDS011;44744;51.894;5.080;2023-04-15T00:59:17;7.50;;;4.70;;
58966;SDS011;44744;51.894;5.080;2023-04-15T01:00:19;8.30;;;4.60;;
58966;SDS011;44744;51.894;5.080;2023-04-15T01:01:19;9.40;;;4.70;;
58966;SDS011;44744;51.894;5.080;2023-04-15T01:02:21;12.10;;;5.10;;
58966;SDS011;44744;51.894;5.080;2023-04-15T01:03:22;8.00;;;4.80;;
58966;SDS011;44744;51.894;5.080;2023-04-15T01:04:22;11.00;;;4.70;;
58966;SDS011;44744;51.894;5.080;2023-04-15T01:05:22;7.30;;;5.10;;
58966;SDS011;44744;51.894;5.080;2023-04-15T01:06:23;6.90;;;4.30;;
58966;SDS011;44744;51.894;5.080;2023-04-15T01:07:23;10.60;;;5.00;;
58966;SDS011;44744;51.894;5.080;2023-04-15T01:08:27;10.90;;;4.90;;
58966;SDS011;44744;51.894;5.080;2023-04-15T01:09:27;7.20;;;4.80;;
58966;SDS011;44744;51.894;5.080;2023-04-15T01:10:28;10.10;;;4.70;;
58966;SDS011;44744;51.894;5.080;2023-04-15T01:11:28;7.80;;;4.60;;
58966;SDS011;44744;51.894;5.080;2023-04-15T01:12:31;7.60;;;5.10;;
58966;SDS011;44744;51.894;5.080;2023-04-15T01:13:32;9.20;;;5.00;;
58966;SDS011;44744;51.894;5.080;2023-04-15T01:14:33;9.50;;;5.40;;
58966;SDS011;44744;51.894;5.080;2023-04-15T01:15:34;7.70;;;4.80;;
58966;SDS011;44744;51.894;5.080;2023-04-15T01:16:35;8.00;;;4.80;;
58966;SDS011;44744;51.894;5.080;2023-04-15T01:17:38;9.90;;;4.70;;
58966;SDS011;44744;51.894;5.080;2023-04-15T01:18:39;8.70;;;5.00;;
58966;SDS011;44744;51.894;5.080;2023-04-15T01:19:40;9.90;;;5.40;;
58966;SDS011;44744;51.894;5.080;2023-04-15T01:20:40;11.00;;;5.50;;
58966;SDS011;44744;51.894;5.080;2023-04-15T01:21:41;10.10;;;4.90;;
58966;SDS011;44744;51.894;5.080;2023-04-15T01:22:41;8.40;;;5.00;;
58966;SDS011;44744;51.894;5.080;2023-04-15T01:23:42;8.10;;;5.30;;
58966;SDS011;44744;51.894;5.080;2023-04-15T01:24:53;10.20;;;5.70;;
58966;SDS011;44744;51.894;5.080;2023-04-15T01:25:55;9.50;;;4.90;;
58966;SDS011;44744;51.894;5.080;2023-04-15T01:26:56;10.70;;;5.40;;
58966;SDS011;44744;51.894;5.080;2023-04-15T01:27:57;6.20;;;5.00;;
58966;SDS011;44744;51.894;5.080;2023-04-15T01:28:57;9.60;;;4.70;;
58966;SDS011;44744;51.894;5.080;2023-04-15T01:29:57;7.60;;;5.40;;
58966;SDS011;44744;51.894;5.080;2023-04-15T01:31:04;12.00;;;5.60;;
58966;SDS011;44744;51.894;5.080;2023-04-15T01:32:06;10.30;;;5.20;;
58966;SDS011;44744;51.894;5.080;2023-04-15T01:33:06;7.20;;;5.30;;
58966;SDS011;44744;51.894;5.080;2023-04-15T01:34:06;7.10;;;5.20;;
58966;SDS011;44744;51.894;5.080;2023-04-15T01:35:07;8.30;;;4.90;;
58966;SDS011;44744;51.894;5.080;2023-04-15T01:36:08;7.50;;;4.90;;
58966;SDS011;44744;51.894;5.080;2023-04-15T01:37:09;8.50;;;5.50;;
58966;SDS011;44744;51.894;5.080;2023-04-15T01:38:09;8.70;;;5.10;;
58966;SDS011;44744;51.894;5.080;2023-04-15T01:39:10;8.10;;;5.30;;
58966;SDS011;44744;51.894;5.080;2023-04-15T01:40:11;6.10;;;5.20;;
58966;SDS011;44744;51.894;5.080;2023-04-15T01:41:12;6.90;;;5.30;;
58966;SDS011;44744;51.894;5.080;2023-04-15T01:42:13;9.10;;;5.40;;
58966;SDS011;44744;51.894;5.080;2023-04-15T01:43:13;7.30;;;5.20;;
58966;SDS011;44744;51.894;5.080;2023-04-15T01:44:13;9.70;;;5.60;;
58966;SDS011;44744;51.894;5.080;2023-04-15T01:45:13;9.40;;;5.40;;
58966;SDS011;44744;51.894;5.080;2023-04-15T01:46:14;10.00;;;5.00;;
58966;SDS011;44744;51.894;5.080;2023-04-15T01:47:14;8.60;;;5.30;;
58966;SDS011;44744;51.894;5.080;2023-04-15T01:48:14;10.00;;;5.40;;
58966;SDS011;44744;51.894;5.080;2023-04-15T01:49:15;9.60;;;5.20;;
58966;SDS011;44744;51.894;5.080;2023-04-15T01:50:15;7.90;;;5.00;;
58966;SDS011;44744;51.894;5.080;2023-04-15T01:51:15;9.30;;;4.90;;
58966;SDS011;44744;51.894;5.080;2023-04-15T01:52:16;7.50;;;5.20;;
58966;SDS011;44744;51.894;5.080;2023-04-15T01:53:16;7.40;;;5.20;;
58966;SDS011;44744;51.894;5.080;2023-04-15T01:54:16;9.20;;;5.20;;
58966;SDS011;44744;51.894;5.080;2023-04-15T01:55:16;8.50;;;4.90;;
58966;SDS011;44744;51.894;5.080;2023-04-15T01:56:17;7.90;;;5.20;;
58966;SDS011;44744;51.894;5.080;2023-04-15T01:57:17;9.20;;;5.20;;
58966;SDS011;44744;51.894;5.080;2023-04-15T01:58:17;9.40;;;5.10;;
58966;SDS011;44744;51.894;5.080;2023-04-15T01:59:18;7.60;;;5.50;;
58966;SDS011;44744;51.894;5.080;2023-04-15T02:00:18;7.50;;;5.10;;
58966;SDS011;44744;51.894;5.080;2023-04-15T02:01:19;7.90;;;5.20;;
58966;SDS011;44744;51.894;5.080;2023-04-15T02:02:19;8.30;;;5.40;;
58966;SDS011;44744;51.894;5.080;2023-04-15T02:03:19;8.50;;;5.30;;
58966;SDS011;44744;51.894;5.080;2023-04-15T02:04:19;9.40;;;5.30;;
58966;SDS011;44744;51.894;5.080;2023-04-15T02:05:20;6.90;;;5.20;;
58966;SDS011;44744;51.894;5.080;2023-04-15T02:06:20;10.00;;;5.40;;
58966;SDS011;44744;51.894;5.080;2023-04-15T02:07:20;8.80;;;5.30;;
58966;SDS011;44744;51.894;5.080;2023-04-15T02:08:20;12.50;;;5.50;;
58966;SDS011;44744;51.894;5.080;2023-04-15T02:09:21;9.00;;;5.40;;
58966;SDS011;44744;51.894;5.080;2023-04-15T02:10:21;9.60;;;5.40;;
58966;SDS011;44744;51.894;5.080;2023-04-15T02:11:21;7.80;;;5.30;;
58966;SDS011;44744;51.894;5.080;2023-04-15T02:12:22;9.90;;;5.40;;
58966;SDS011;44744;51.894;5.080;2023-04-15T02:13:22;7.60;;;5.10;;
58966;SDS011;44744;51.894;5.080;2023-04-15T02:14:24;7.40;;;4.80;;
58966;SDS011;44744;51.894;5.080;2023-04-15T02:15:24;6.30;;;5.00;;
58966;SDS011;44744;51.894;5.080;2023-04-15T02:16:24;6.80;;;5.00;;
58966;SDS011;44744;51.894;5.080;2023-04-15T02:17:25;8.80;;;5.70;;
58966;SDS011;44744;51.894;5.080;2023-04-15T02:18:25;7.70;;;5.30;;
58966;SDS011;44744;51.894;5.080;2023-04-15T02:19:25;7.50;;;5.20;;
58966;SDS011;44744;51.894;5.080;2023-04-15T02:20:26;9.80;;;5.30;;
58966;SDS011;44744;51.894;5.080;2023-04-15T02:21:26;8.00;;;5.00;;
58966;SDS011;44744;51.894;5.080;2023-04-15T02:22:26;8.50;;;5.10;;
58966;SDS011;44744;51.894;5.080;2023-04-15T02:23:27;9.20;;;5.10;;
58966;SDS011;44744;51.894;5.080;2023-04-15T02:24:28;9.50;;;5.50;;
58966;SDS011;44744;51.894;5.080;2023-04-15T02:26:29;7.90;;;5.60;;
58966;SDS011;44744;51.894;5.080;2023-04-15T02:27:29;7.20;;;5.10;;
58966;SDS011;44744;51.894;5.080;2023-04-15T02:28:30;8.30;;;5.60;;
58966;SDS011;44744;51.894;5.080;2023-04-15T02:29:30;10.40;;;5.40;;
58966;SDS011;44744;51.894;5.080;2023-04-15T02:30:31;7.90;;;4.80;;
58966;SDS011;44744;51.894;5.080;2023-04-15T02:31:32;9.90;;;5.00;;
58966;SDS011;44744;51.894;5.080;2023-04-15T02:32:32;7.80;;;4.70;;
58966;SDS011;44744;51.894;5.080;2023-04-15T02:33:34;7.70;;;5.10;;
58966;SDS011;44744;51.894;5.080;2023-04-15T02:34:34;8.60;;;5.00;;
58966;SDS011;44744;51.894;5.080;2023-04-15T02:35:35;9.30;;;5.00;;
58966;SDS011;44744;51.894;5.080;2023-04-15T02:36:35;7.10;;;5.10;;
58966;SDS011;44744;51.894;5.080;2023-04-15T02:37:36;9.20;;;4.60;;
58966;SDS011;44744;51.894;5.080;2023-04-15T02:38:36;10.10;;;5.00;;
58966;SDS011;44744;51.894;5.080;2023-04-15T02:39:37;8.00;;;4.80;;
58966;SDS011;44744;51.894;5.080;2023-04-15T02:40:37;8.20;;;4.50;;
58966;SDS011;44744;51.894;5.080;2023-04-15T02:41:38;6.80;;;4.50;;
58966;SDS011;44744;51.894;5.080;2023-04-15T02:42:38;8.50;;;5.10;;
58966;SDS011;44744;51.894;5.080;2023-04-15T02:43:39;8.70;;;4.80;;
58966;SDS011;44744;51.894;5.080;2023-04-15T02:44:39;6.90;;;5.00;;
58966;SDS011;44744;51.894;5.080;2023-04-15T02:45:40;8.70;;;5.30;;
58966;SDS011;44744;51.894;5.080;2023-04-15T02:46:40;7.30;;;5.10;;
58966;SDS011;44744;51.894;5.080;2023-04-15T02:47:40;9.80;;;5.20;;
58966;SDS011;44744;51.894;5.080;2023-04-15T02:48:40;7.50;;;5.10;;
58966;SDS011;44744;51.894;5.080;2023-04-15T02:49:41;9.00;;;5.10;;
58966;SDS011;44744;51.894;5.080;2023-04-15T02:50:41;8.40;;;4.90;;
58966;SDS011;44744;51.894;5.080;2023-04-15T02:51:41;10.90;;;5.30;;
58966;SDS011;44744;51.894;5.080;2023-04-15T02:52:42;6.70;;;4.90;;
58966;SDS011;44744;51.894;5.080;2023-04-15T02:53:42;6.70;;;5.00;;
58966;SDS011;44744;51.894;5.080;2023-04-15T02:54:42;6.20;;;4.30;;
58966;SDS011;44744;51.894;5.080;2023-04-15T02:55:42;8.70;;;5.00;;
58966;SDS011;44744;51.894;5.080;2023-04-15T02:56:43;9.30;;;5.50;;
58966;SDS011;44744;51.894;5.080;2023-04-15T02:57:43;10.00;;;5.20;;
58966;SDS011;44744;51.894;5.080;2023-04-15T02:58:43;8.20;;;4.70;;
58966;SDS011;44744;51.894;5.080;2023-04-15T02:59:44;6.90;;;4.60;;
58966;SDS011;44744;51.894;5.080;2023-04-15T03:00:44;9.10;;;5.00;;
58966;SDS011;44744;51.894;5.080;2023-04-15T03:01:44;8.40;;;4.70;;
58966;SDS011;44744;51.894;5.080;2023-04-15T03:02:45;7.90;;;4.50;;
58966;SDS011;44744;51.894;5.080;2023-04-15T03:03:45;8.30;;;5.30;;
58966;SDS011;44744;51.894;5.080;2023-04-15T03:04:45;6.80;;;4.80;;
58966;SDS011;44744;51.894;5.080;2023-04-15T03:05:46;7.30;;;4.90;;
58966;SDS011;44744;51.894;5.080;2023-04-15T03:06:46;5.60;;;4.70;;
58966;SDS011;44744;51.894;5.080;2023-04-15T03:07:46;7.90;;;5.00;;
58966;SDS011;44744;51.894;5.080;2023-04-15T03:08:46;7.50;;;5.00;;
58966;SDS011;44744;51.894;5.080;2023-04-15T03:09:47;7.30;;;5.10;;
58966;SDS011;44744;51.894;5.080;2023-04-15T03:10:47;6.40;;;4.50;;
58966;SDS011;44744;51.894;5.080;2023-04-15T03:11:48;7.20;;;4.50;;
58966;SDS011;44744;51.894;5.080;2023-04-15T03:12:48;7.40;;;4.70;;
58966;SDS011;44744;51.894;5.080;2023-04-15T03:13:48;9.20;;;4.60;;
58966;SDS011;44744;51.894;5.080;2023-04-15T03:14:49;6.50;;;5.10;;
58966;SDS011;44744;51.894;5.080;2023-04-15T03:15:49;7.70;;;4.90;;
58966;SDS011;44744;51.894;5.080;2023-04-15T03:16:49;7.90;;;4.90;;
58966;SDS011;44744;51.894;5.080;2023-04-15T03:17:49;6.70;;;4.60;;
58966;SDS011;44744;51.894;5.080;2023-04-15T03:18:50;6.70;;;5.00;;
58966;SDS011;44744;51.894;5.080;2023-04-15T03:19:50;6.90;;;4.70;;
58966;SDS011;44744;51.894;5.080;2023-04-15T03:20:51;6.60;;;4.60;;
58966;SDS011;44744;51.894;5.080;2023-04-15T03:21:51;9.40;;;4.60;;
58966;SDS011;44744;51.894;5.080;2023-04-15T03:22:51;7.10;;;4.60;;
58966;SDS011;44744;51.894;5.080;2023-04-15T03:23:51;9.70;;;4.70;;
58966;SDS011;44744;51.894;5.080;2023-04-15T03:24:52;8.90;;;5.30;;
58966;SDS011;44744;51.894;5.080;2023-04-15T03:25:52;7.50;;;4.70;;
58966;SDS011;44744;51.894;5.080;2023-04-15T03:26:52;7.40;;;4.90;;
58966;SDS011;44744;51.894;5.080;2023-04-15T03:27:52;6.50;;;4.50;;
58966;SDS011;44744;51.894;5.080;2023-04-15T03:28:53;9.70;;;4.60;;
58966;SDS011;44744;51.894;5.080;2023-04-15T03:29:54;8.10;;;4.80;;
58966;SDS011;44744;51.894;5.080;2023-04-15T03:30:54;10.00;;;5.20;;
58966;SDS011;44744;51.894;5.080;2023-04-15T03:31:54;8.80;;;5.50;;
58966;SDS011;44744;51.894;5.080;2023-04-15T03:32:54;8.20;;;5.50;;
58966;SDS011;44744;51.894;5.080;2023-04-15T03:33:55;7.40;;;5.30;;
58966;SDS011;44744;51.894;5.080;2023-04-15T03:34:55;11.30;;;5.50;;
58966;SDS011;44744;51.894;5.080;2023-04-15T03:35:55;7.00;;;5.10;;
58966;SDS011;44744;51.894;5.080;2023-04-15T03:36:56;6.30;;;4.70;;
58966;SDS011;44744;51.894;5.080;2023-04-15T03:37:56;8.50;;;5.10;;
58966;SDS011;44744;51.894;5.080;2023-04-15T03:38:56;8.80;;;5.10;;
58966;SDS011;44744;51.894;5.080;2023-04-15T03:39:56;6.70;;;5.00;;
58966;SDS011;44744;51.894;5.080;2023-04-15T03:40:57;6.90;;;4.90;;
58966;SDS011;44744;51.894;5.080;2023-04-15T03:41:57;10.30;;;5.40;;
58966;SDS011;44744;51.894;5.080;2023-04-15T03:42:58;8.50;;;5.10;;
58966;SDS011;44744;51.894;5.080;2023-04-15T03:43:58;8.80;;;5.30;;
58966;SDS011;44744;51.894;5.080;2023-04-15T03:44:58;7.80;;;5.00;;
58966;SDS011;44744;51.894;5.080;2023-04-15T03:45:59;7.50;;;4.80;;
58966;SDS011;44744;51.894;5.080;2023-04-15T03:47:02;7.70;;;4.70;;
58966;SDS011;44744;51.894;5.080;2023-04-15T03:48:02;8.00;;;4.90;;
58966;SDS011;44744;51.894;5.080;2023-04-15T03:49:03;8.30;;;5.30;;
58966;SDS011;44744;51.894;5.080;2023-04-15T03:50:05;7.70;;;5.00;;
58966;SDS011;44744;51.894;5.080;2023-04-15T03:51:06;8.10;;;5.20;;
58966;SDS011;44744;51.894;5.080;2023-04-15T03:52:06;7.10;;;5.00;;
58966;SDS011;44744;51.894;5.080;2023-04-15T03:53:07;9.60;;;5.50;;
58966;SDS011;44744;51.894;5.080;2023-04-15T03:54:07;7.40;;;5.00;;
58966;SDS011;44744;51.894;5.080;2023-04-15T03:55:07;8.80;;;5.10;;
58966;SDS011;44744;51.894;5.080;2023-04-15T03:56:08;7.80;;;5.30;;
58966;SDS011;44744;51.894;5.080;2023-04-15T03:57:08;8.70;;;5.20;;
58966;SDS011;44744;51.894;5.080;2023-04-15T03:58:08;10.40;;;4.90;;
58966;SDS011;44744;51.894;5.080;2023-04-15T03:59:09;9.10;;;5.40;;
58966;SDS011;44744;51.894;5.080;2023-04-15T04:00:09;9.60;;;5.50;;
58966;SDS011;44744;51.894;5.080;2023-04-15T04:01:09;7.20;;;5.00;;
58966;SDS011;44744;51.894;5.080;2023-04-15T04:02:09;8.80;;;5.80;;
58966;SDS011;44744;51.894;5.080;2023-04-15T04:03:11;9.10;;;5.40;;
58966;SDS011;44744;51.894;5.080;2023-04-15T04:04:11;10.90;;;4.80;;
58966;SDS011;44744;51.894;5.080;2023-04-15T04:05:12;9.80;;;5.20;;
58966;SDS011;44744;51.894;5.080;2023-04-15T04:06:12;8.60;;;5.20;;
58966;SDS011;44744;51.894;5.080;2023-04-15T04:07:14;8.60;;;5.50;;
58966;SDS011;44744;51.894;5.080;2023-04-15T04:08:15;7.10;;;5.20;;
58966;SDS011;44744;51.894;5.080;2023-04-15T04:09:15;6.90;;;5.20;;
58966;SDS011;44744;51.894;5.080;2023-04-15T04:10:16;8.00;;;5.50;;
58966;SDS011;44744;51.894;5.080;2023-04-15T04:11:16;8.30;;;5.80;;
58966;SDS011;44744;51.894;5.080;2023-04-15T04:12:18;9.00;;;5.50;;
58966;SDS011;44744;51.894;5.080;2023-04-15T04:13:18;8.70;;;5.70;;
58966;SDS011;44744;51.894;5.080;2023-04-15T04:14:18;9.20;;;5.90;;
58966;SDS011;44744;51.894;5.080;2023-04-15T04:15:18;7.80;;;5.80;;
58966;SDS011;44744;51.894;5.080;2023-04-15T04:16:19;7.40;;;5.10;;
58966;SDS011;44744;51.894;5.080;2023-04-15T04:17:19;9.30;;;5.80;;
58966;SDS011;44744;51.894;5.080;2023-04-15T04:18:20;9.80;;;5.90;;
58966;SDS011;44744;51.894;5.080;2023-04-15T04:19:20;9.00;;;5.60;;
58966;SDS011;44744;51.894;5.080;2023-04-15T04:20:20;9.40;;;5.70;;
58966;SDS011;44744;51.894;5.080;2023-04-15T04:21:20;10.00;;;6.00;;
58966;SDS011;44744;51.894;5.080;2023-04-15T04:22:21;8.40;;;5.20;;
58966;SDS011;44744;51.894;5.080;2023-04-15T04:23:22;10.00;;;5.70;;
58966;SDS011;44744;51.894;5.080;2023-04-15T04:24:22;8.80;;;5.50;;
58966;SDS011;44744;51.894;5.080;2023-04-15T04:25:23;7.70;;;5.60;;
58966;SDS011;44744;51.894;5.080;2023-04-15T04:26:23;7.40;;;5.40;;
58966;SDS011;44744;51.894;5.080;2023-04-15T04:27:24;9.60;;;6.20;;
58966;SDS011;44744;51.894;5.080;2023-04-15T04:28:24;9.60;;;6.40;;
58966;SDS011;44744;51.894;5.080;2023-04-15T04:29:24;8.00;;;5.80;;
58966;SDS011;44744;51.894;5.080;2023-04-15T04:30:25;12.80;;;6.00;;
58966;SDS011;44744;51.894;5.080;2023-04-15T04:31:25;8.90;;;5.70;;
58966;SDS011;44744;51.894;5.080;2023-04-15T04:32:25;8.70;;;6.10;;
58966;SDS011;44744;51.894;5.080;2023-04-15T04:33:25;7.80;;;5.50;;
58966;SDS011;44744;51.894;5.080;2023-04-15T04:34:26;8.20;;;5.60;;
58966;SDS011;44744;51.894;5.080;2023-04-15T04:35:26;8.10;;;5.40;;
58966;SDS011;44744;51.894;5.080;2023-04-15T04:36:26;9.80;;;5.60;;
58966;SDS011;44744;51.894;5.080;2023-04-15T04:37:26;8.20;;;5.70;;
58966;SDS011;44744;51.894;5.080;2023-04-15T04:38:27;7.40;;;5.40;;
58966;SDS011;44744;51.894;5.080;2023-04-15T04:39:27;7.30;;;5.40;;
58966;SDS011;44744;51.894;5.080;2023-04-15T04:40:27;8.10;;;5.60;;
58966;SDS011;44744;51.894;5.080;2023-04-15T04:41:27;7.50;;;6.20;;
58966;SDS011;44744;51.894;5.080;2023-04-15T04:42:28;7.80;;;5.80;;
58966;SDS011;44744;51.894;5.080;2023-04-15T04:43:28;11.50;;;6.00;;
58966;SDS011;44744;51.894;5.080;2023-04-15T04:44:29;9.20;;;5.30;;
58966;SDS011;44744;51.894;5.080;2023-04-15T04:45:32;8.50;;;6.00;;
58966;SDS011;44744;51.894;5.080;2023-04-15T04:46:32;8.90;;;5.70;;
58966;SDS011;44744;51.894;5.080;2023-04-15T04:47:32;9.50;;;6.00;;
58966;SDS011;44744;51.894;5.080;2023-04-15T04:48:32;7.70;;;5.40;;
58966;SDS011;44744;51.894;5.080;2023-04-15T04:49:33;10.80;;;6.10;;
58966;SDS011;44744;51.894;5.080;2023-04-15T04:50:33;10.00;;;6.10;;
58966;SDS011;44744;51.894;5.080;2023-04-15T04:51:34;7.10;;;5.30;;
58966;SDS011;44744;51.894;5.080;2023-04-15T04:52:34;8.00;;;5.90;;
58966;SDS011;44744;51.894;5.080;2023-04-15T04:53:35;9.60;;;5.90;;
58966;SDS011;44744;51.894;5.080;2023-04-15T04:54:35;7.80;;;5.40;;
58966;SDS011;44744;51.894;5.080;2023-04-15T04:55:36;9.10;;;6.10;;
58966;SDS011;44744;51.894;5.080;2023-04-15T04:56:36;11.10;;;5.80;;
58966;SDS011;44744;51.894;5.080;2023-04-15T04:57:36;8.10;;;5.80;;
58966;SDS011;44744;51.894;5.080;2023-04-15T04:58:36;9.30;;;5.50;;
58966;SDS011;44744;51.894;5.080;2023-04-15T04:59:37;9.30;;;5.60;;
58966;SDS011;44744;51.894;5.080;2023-04-15T05:00:39;8.90;;;5.30;;
58966;SDS011;44744;51.894;5.080;2023-04-15T05:01:40;9.00;;;5.40;;
58966;SDS011;44744;51.894;5.080;2023-04-15T05:02:40;7.90;;;5.70;;
58966;SDS011;44744;51.894;5.080;2023-04-15T05:03:41;8.00;;;5.40;;
58966;SDS011;44744;51.894;5.080;2023-04-15T05:04:41;9.10;;;6.20;;
58966;SDS011;44744;51.894;5.080;2023-04-15T05:05:41;9.20;;;5.80;;
58966;SDS011;44744;51.894;5.080;2023-04-15T05:06:41;10.10;;;5.90;;
58966;SDS011;44744;51.894;5.080;2023-04-15T05:07:42;13.90;;;6.30;;
58966;SDS011;44744;51.894;5.080;2023-04-15T05:08:42;7.00;;;5.70;;
58966;SDS011;44744;51.894;5.080;2023-04-15T05:09:44;9.40;;;6.50;;
58966;SDS011;44744;51.894;5.080;2023-04-15T05:10:44;9.10;;;5.90;;
58966;SDS011;44744;51.894;5.080;2023-04-15T05:11:44;11.40;;;6.80;;
58966;SDS011;44744;51.894;5.080;2023-04-15T05:12:44;9.70;;;5.70;;
58966;SDS011;44744;51.894;5.080;2023-04-15T05:13:46;10.70;;;5.90;;
58966;SDS011;44744;51.894;5.080;2023-04-15T05:14:47;10.50;;;6.50;;
58966;SDS011;44744;51.894;5.080;2023-04-15T05:15:47;8.80;;;5.80;;
58966;SDS011;44744;51.894;5.080;2023-04-15T05:16:47;13.20;;;6.90;;
58966;SDS011;44744;51.894;5.080;2023-04-15T05:17:47;8.20;;;6.00;;
58966;SDS011;44744;51.894;5.080;2023-04-15T05:18:48;9.40;;;6.20;;
58966;SDS011;44744;51.894;5.080;2023-04-15T05:19:48;10.70;;;6.80;;
58966;SDS011;44744;51.894;5.080;2023-04-15T05:20:48;11.00;;;6.30;;
58966;SDS011;44744;51.894;5.080;2023-04-15T05:21:49;9.20;;;5.80;;
58966;SDS011;44744;51.894;5.080;2023-04-15T05:22:49;9.90;;;5.80;;
58966;SDS011;44744;51.894;5.080;2023-04-15T05:23:49;8.00;;;6.50;;
58966;SDS011;44744;51.894;5.080;2023-04-15T05:24:49;8.80;;;6.40;;
58966;SDS011;44744;51.894;5.080;2023-04-15T05:25:50;9.20;;;6.10;;
58966;SDS011;44744;51.894;5.080;2023-04-15T05:26:50;9.30;;;6.00;;
58966;SDS011;44744;51.894;5.080;2023-04-15T05:27:50;11.80;;;6.20;;
58966;SDS011;44744;51.894;5.080;2023-04-15T05:28:50;9.20;;;5.80;;
58966;SDS011;44744;51.894;5.080;2023-04-15T05:29:51;8.70;;;6.50;;
58966;SDS011;44744;51.894;5.080;2023-04-15T05:30:51;8.90;;;6.10;;
58966;SDS011;44744;51.894;5.080;2023-04-15T05:31:51;7.80;;;5.80;;
58966;SDS011;44744;51.894;5.080;2023-04-15T05:32:52;8.60;;;6.40;;
58966;SDS011;44744;51.894;5.080;2023-04-15T05:33:52;9.50;;;5.70;;
58966;SDS011;44744;51.894;5.080;2023-04-15T05:34:52;9.60;;;6.40;;
58966;SDS011;44744;51.894;5.080;2023-04-15T05:35:53;8.60;;;6.00;;
58966;SDS011;44744;51.894;5.080;2023-04-15T05:36:53;10.00;;;6.60;;
58966;SDS011;44744;51.894;5.080;2023-04-15T05:37:53;8.90;;;6.20;;
58966;SDS011;44744;51.894;5.080;2023-04-15T05:38:54;8.10;;;6.30;;
58966;SDS011;44744;51.894;5.080;2023-04-15T05:39:54;10.90;;;6.50;;
58966;SDS011;44744;51.894;5.080;2023-04-15T05:40:54;7.60;;;6.20;;
58966;SDS011;44744;51.894;5.080;2023-04-15T05:41:54;7.90;;;6.20;;
58966;SDS011;44744;51.894;5.080;2023-04-15T05:42:55;11.70;;;6.50;;
58966;SDS011;44744;51.894;5.080;2023-04-15T05:43:56;10.20;;;6.50;;
58966;SDS011;44744;51.894;5.080;2023-04-15T05:44:56;12.00;;;6.70;;
58966;SDS011;44744;51.894;5.080;2023-04-15T05:45:56;8.70;;;6.40;;
58966;SDS011;44744;51.894;5.080;2023-04-15T05:46:56;11.10;;;6.30;;
58966;SDS011;44744;51.894;5.080;2023-04-15T05:47:57;7.10;;;6.20;;
58966;SDS011;44744;51.894;5.080;2023-04-15T05:48:57;8.70;;;5.90;;
58966;SDS011;44744;51.894;5.080;2023-04-15T05:49:57;8.30;;;6.10;;
58966;SDS011;44744;51.894;5.080;2023-04-15T05:50:57;12.10;;;6.70;;
58966;SDS011;44744;51.894;5.080;2023-04-15T05:52:03;7.60;;;6.00;;
58966;SDS011;44744;51.894;5.080;2023-04-15T05:53:03;9.60;;;6.90;;
58966;SDS011;44744;51.894;5.080;2023-04-15T05:54:04;8.90;;;6.10;;
58966;SDS011;44744;51.894;5.080;2023-04-15T05:55:04;10.50;;;7.10;;
58966;SDS011;44744;51.894;5.080;2023-04-15T05:56:05;10.30;;;6.60;;
58966;SDS011;44744;51.894;5.080;2023-04-15T05:57:05;8.00;;;6.60;;
58966;SDS011;44744;51.894;5.080;2023-04-15T05:58:05;10.20;;;6.30;;
58966;SDS011;44744;51.894;5.080;2023-04-15T05:59:06;8.40;;;6.50;;
58966;SDS011;44744;51.894;5.080;2023-04-15T06:00:06;8.60;;;6.20;;
58966;SDS011;44744;51.894;5.080;2023-04-15T06:01:07;9.70;;;7.00;;
58966;SDS011;44744;51.894;5.080;2023-04-15T06:02:08;8.80;;;6.90;;
58966;SDS011;44744;51.894;5.080;2023-04-15T06:03:09;9.20;;;6.80;;
58966;SDS011;44744;51.894;5.080;2023-04-15T06:04:09;8.90;;;6.60;;
58966;SDS011;44744;51.894;5.080;2023-04-15T06:05:10;11.70;;;6.70;;